Terminal Aerodrome Forecast
Issued by NWS Jackson, MS

Home | Current Version | Previous Version | Text Only | Print | Product List | Glossary On
Versions: 1 2 3 4 5 6 7 8 9 10 11 12 13 14 15 16
000
FTUS44 KJAN 232320
TAFJAN
TAF
KJAN 232320Z 2400/2424 14009KT P6SM SCT080
     FM240900 15011G21KT P6SM BKN015 BKN250
     FM241600 16013G23KT P6SM BKN025=

USA.gov is the U.S. government's official web portal to all federal, state and local government web resources and services.